createdAt,value
2022-11-17T00:04:24.635Z,83.20
2022-11-17T00:09:25.312Z,83.72
2022-11-17T00:14:33.831Z,84.21
2022-11-17T00:19:48.464Z,84.29
2022-11-17T00:24:49.038Z,84.81
2022-11-17T00:29:45.842Z,85.05
2022-11-17T00:34:42.589Z,85.04
2022-11-17T00:39:41.715Z,84.98
2022-11-17T00:44:38.990Z,84.64
2022-11-17T00:49:36.528Z,84.11
2022-11-17T00:54:36.187Z,83.74
2022-11-17T00:59:34.988Z,84.43
2022-11-17T01:04:34.826Z,83.93
2022-11-17T01:09:31.557Z,84.36
2022-11-17T01:14:28.954Z,84.66
2022-11-17T01:19:27.955Z,84.19
2022-11-17T01:24:26.708Z,83.95
2022-11-17T01:29:23.532Z,84.74
2022-11-17T01:34:20.312Z,85.07
2022-11-17T01:39:20.049Z,85.34
2022-11-17T01:44:35.480Z,85.35
2022-11-17T01:49:33.286Z,85.58
2022-11-17T01:54:34.604Z,85.29
2022-11-17T01:59:36.925Z,84.64
2022-11-17T02:04:35.804Z,84.56
2022-11-17T02:09:33.264Z,84.92
2022-11-17T02:14:30.431Z,85.10
2022-11-17T02:19:28.266Z,85.18
2022-11-17T02:24:47.162Z,85.09
2022-11-17T02:29:48.219Z,85.09
2022-11-17T02:34:47.057Z,85.02
2022-11-17T02:39:48.105Z,84.89
2022-11-17T02:44:53.276Z,85.92
2022-11-17T02:49:53.442Z,86.76
2022-11-17T02:54:49.995Z,86.97
2022-11-17T02:59:49.208Z,87.17
2022-11-17T03:04:52.105Z,87.02
2022-11-17T03:09:54.347Z,86.74
2022-11-17T03:14:57.948Z,86.55
2022-11-17T03:19:58.669Z,86.44
2022-11-17T03:24:57.932Z,85.89
2022-11-17T03:29:58.517Z,85.74
2022-11-17T03:35:00.695Z,85.97
2022-11-17T03:39:59.567Z,88.58
2022-11-17T03:45:00.951Z,90.28
2022-11-17T03:50:01.817Z,90.06
2022-11-17T03:54:58.768Z,88.77
2022-11-17T04:00:04.429Z,88.40
2022-11-17T04:05:09.637Z,88.10
2022-11-17T04:10:07.123Z,87.89
2022-11-17T04:15:22.765Z,87.80
2022-11-17T04:20:19.567Z,87.25
2022-11-17T04:25:36.355Z,87.22
2022-11-17T04:30:36.594Z,86.68
2022-11-17T04:35:33.395Z,86.75
2022-11-17T04:40:50.217Z,86.50
2022-11-17T04:45:47.900Z,86.29
2022-11-17T04:50:44.545Z,86.48
2022-11-17T04:55:41.276Z,88.42
2022-11-17T05:00:38.917Z,90.08
2022-11-17T05:05:36.263Z,89.66
2022-11-17T05:10:50.912Z,88.97
2022-11-17T05:16:05.632Z,88.09
2022-11-17T05:21:07.734Z,87.53
2022-11-17T05:26:05.281Z,87.52
2022-11-17T05:31:11.222Z,86.93
2022-11-17T05:36:11.338Z,84.13
2022-11-17T05:41:08.062Z,83.31
2022-11-17T05:46:06.625Z,83.36
2022-11-17T05:51:12.355Z,83.51
2022-11-17T05:56:14.658Z,82.42
2022-11-17T06:01:14.727Z,82.11
2022-11-17T06:06:11.427Z,80.36
2022-11-17T06:11:09.508Z,81.26
2022-11-17T06:16:12.671Z,81.71
2022-11-17T06:21:14.904Z,82.61
2022-11-17T06:26:12.329Z,82.20
2022-11-17T06:31:10.107Z,81.19
2022-11-17T06:36:08.912Z,79.22
2022-11-17T06:41:11.503Z,79.61
2022-11-17T06:46:11.860Z,78.61
2022-11-17T06:51:11.239Z,78.99
2022-11-17T06:56:08.309Z,78.80
2022-11-17T07:01:14.039Z,77.86
2022-11-17T07:06:15.637Z,78.11
2022-11-17T07:11:13.685Z,77.55
2022-11-17T07:16:12.082Z,78.28
2022-11-17T07:21:13.588Z,76.78
2022-11-17T07:26:14.117Z,78.20
2022-11-17T07:31:11.360Z,78.30
2022-11-17T07:36:11.982Z,79.01
2022-11-17T07:41:15.251Z,79.28
2022-11-17T07:46:13.748Z,79.49
2022-11-17T07:51:11.131Z,79.28
2022-11-17T07:56:11.815Z,78.67
2022-11-17T08:01:14.908Z,79.01
2022-11-17T08:06:12.301Z,80.46
2022-11-17T08:11:13.833Z,81.82
2022-11-17T08:16:13.802Z,82.98
2022-11-17T08:21:13.261Z,84.42
2022-11-17T08:26:11.110Z,84.61
2022-11-17T08:31:09.616Z,86.40
2022-11-17T08:36:10.237Z,87.45
2022-11-17T08:41:15.541Z,89.28
2022-11-17T08:46:12.663Z,89.90
2022-11-17T08:51:13.734Z,90.96
2022-11-17T08:56:14.523Z,91.08
2022-11-17T09:01:12.635Z,92.68
2022-11-17T09:06:10.601Z,94.92
2022-11-17T09:11:20.308Z,95.73
2022-11-17T09:16:17.317Z,97.73
2022-11-17T09:21:15.455Z,98.79
2022-11-17T09:26:13.868Z,98.76
2022-11-17T09:31:12.005Z,98.78
2022-11-17T09:36:09.052Z,98.91
2022-11-17T09:41:23.706Z,98.40
2022-11-17T09:46:27.707Z,97.92
2022-11-17T09:51:26.361Z,98.49
2022-11-17T09:56:26.430Z,98.48
2022-11-17T10:01:23.587Z,98.17
2022-11-17T10:06:24.883Z,96.72
2022-11-17T10:11:37.040Z,96.93
2022-11-17T10:16:37.607Z,97.58
2022-11-17T10:21:37.575Z,98.76
2022-11-17T10:26:48.564Z,100.00
2022-11-17T10:31:50.268Z,99.46
2022-11-17T10:36:50.986Z,100.00
2022-11-17T10:41:50.894Z,100.00
2022-11-17T10:47:00.508Z,100.00
2022-11-17T10:52:06.782Z,100.00
2022-11-17T10:57:07.271Z,99.94
2022-11-17T11:02:21.603Z,99.42
2022-11-17T11:07:20.773Z,99.00
2022-11-17T11:12:22.628Z,99.27
2022-11-17T11:17:20.372Z,99.34
2022-11-17T11:22:29.386Z,97.86
2022-11-17T11:27:42.559Z,98.05
2022-11-17T11:32:47.668Z,99.55
2022-11-17T11:37:51.913Z,98.68
2022-11-17T11:42:53.969Z,98.51
2022-11-17T11:48:11.938Z,98.63
2022-11-17T11:53:19.447Z,98.40
2022-11-17T11:58:19.895Z,96.47
2022-11-17T12:03:21.390Z,95.21
2022-11-17T12:08:31.256Z,94.89
2022-11-17T12:13:31.186Z,93.45
2022-11-17T12:18:33.487Z,93.66
2022-11-17T12:23:58.244Z,92.26
2022-11-17T12:29:13.944Z,89.17
2022-11-17T12:34:25.745Z,88.32
2022-11-17T12:39:40.888Z,88.51
2022-11-17T12:44:58.431Z,87.25
2022-11-17T12:50:18.817Z,86.99
2022-11-17T12:55:21.325Z,85.61
2022-11-17T13:00:19.966Z,84.06
2022-11-17T13:05:20.634Z,83.06
2022-11-17T13:10:25.318Z,81.99
2022-11-17T13:15:22.918Z,82.06
2022-11-17T13:20:24.524Z,82.18
2022-11-17T13:25:22.304Z,82.29
2022-11-17T13:30:23.475Z,82.07
2022-11-17T13:35:21.038Z,81.70
2022-11-17T13:40:20.709Z,82.84
2022-11-17T13:45:18.849Z,82.27
2022-11-17T13:50:23.514Z,82.86
2022-11-17T13:55:24.089Z,83.28
2022-11-17T14:00:23.828Z,82.77
2022-11-17T14:05:22.670Z,83.59
2022-11-17T14:10:31.038Z,84.51
2022-11-17T14:15:29.227Z,84.16
2022-11-17T14:20:31.386Z,84.56
2022-11-17T14:25:28.182Z,84.83
2022-11-17T14:30:29.624Z,85.84
2022-11-17T14:35:26.264Z,86.04
2022-11-17T14:40:23.022Z,86.66
2022-11-17T14:45:19.721Z,87.28
2022-11-17T14:50:20.218Z,87.47
2022-11-17T14:55:19.119Z,88.34
2022-11-17T15:00:20.529Z,89.42
2022-11-17T15:05:20.144Z,89.13
2022-11-17T15:10:19.681Z,88.93
2022-11-17T15:15:17.115Z,88.39
2022-11-17T15:20:13.881Z,88.55
2022-11-17T15:25:13.183Z,88.06
2022-11-17T15:30:11.188Z,87.24
2022-11-17T15:35:08.335Z,87.29
2022-11-17T15:40:05.721Z,86.52
2022-11-17T15:45:02.473Z,86.45
2022-11-17T15:50:02.817Z,86.52
2022-11-17T15:54:59.794Z,85.44
2022-11-17T15:59:56.550Z,85.45
2022-11-17T16:04:53.390Z,85.78
2022-11-17T16:09:50.766Z,86.52
2022-11-17T16:14:50.571Z,86.03
2022-11-17T16:19:49.462Z,86.18
2022-11-17T16:24:46.358Z,84.70
2022-11-17T16:29:43.748Z,84.73
2022-11-17T16:34:43.158Z,84.58
2022-11-17T16:39:44.837Z,84.55
2022-11-17T16:44:45.571Z,84.21
2022-11-17T16:49:46.769Z,84.67
2022-11-17T16:54:50.175Z,85.77
2022-11-17T16:59:47.601Z,86.88
2022-11-17T17:04:46.682Z,86.12
2022-11-17T17:09:44.077Z,85.36
2022-11-17T17:14:40.843Z,84.79
2022-11-17T17:19:38.149Z,84.70
2022-11-17T17:24:36.033Z,85.44
2022-11-17T17:29:33.001Z,84.44
2022-11-17T17:34:29.805Z,84.26
2022-11-17T17:39:28.632Z,83.06
2022-11-17T17:44:25.257Z,82.41
2022-11-17T17:49:22.007Z,82.50
2022-11-17T17:54:22.374Z,82.31
2022-11-17T17:59:22.649Z,81.56
2022-11-17T18:04:19.367Z,82.06
2022-11-17T18:09:19.982Z,81.21
2022-11-17T18:14:23.460Z,80.38
2022-11-17T18:19:22.377Z,80.87
2022-11-17T18:24:22.049Z,81.05
2022-11-17T18:29:21.785Z,80.30
2022-11-17T18:34:20.571Z,79.93
2022-11-17T18:39:18.296Z,79.97
2022-11-17T18:44:16.402Z,78.23
2022-11-17T18:49:14.715Z,77.61
2022-11-17T18:54:14.684Z,78.25
2022-11-17T18:59:12.339Z,77.77
2022-11-17T19:04:10.221Z,77.68
2022-11-17T19:09:09.408Z,76.89
2022-11-17T19:14:06.240Z,76.80
2022-11-17T19:19:03.610Z,76.61
2022-11-17T19:24:02.590Z,77.42
2022-11-17T19:29:02.155Z,77.16
2022-11-17T19:33:59.385Z,76.84
2022-11-17T19:39:00.759Z,76.57
2022-11-17T19:43:58.490Z,76.16
2022-11-17T19:48:58.366Z,75.36
2022-11-17T19:53:55.996Z,74.79
2022-11-17T19:58:54.433Z,74.78
2022-11-17T20:03:51.658Z,74.44
2022-11-17T20:08:48.615Z,73.94
2022-11-17T20:13:45.519Z,74.73
2022-11-17T20:18:43.414Z,75.60
2022-11-17T20:23:40.744Z,76.47
2022-11-17T20:28:37.755Z,75.74
2022-11-17T20:33:34.479Z,75.44
2022-11-17T20:38:35.275Z,75.61
2022-11-17T20:43:35.288Z,75.28
2022-11-17T20:48:34.749Z,75.55
2022-11-17T20:53:32.742Z,75.13
2022-11-17T20:58:30.152Z,76.27
2022-11-17T21:03:26.947Z,76.13
2022-11-17T21:08:23.761Z,76.36
2022-11-17T21:13:26.652Z,75.98
2022-11-17T21:18:26.495Z,76.75
2022-11-17T21:23:23.435Z,77.08
2022-11-17T21:28:20.228Z,77.96
2022-11-17T21:33:17.972Z,77.59
2022-11-17T21:38:14.766Z,78.10
2022-11-17T21:43:11.442Z,76.25
2022-11-17T21:48:09.738Z,76.62
2022-11-17T21:53:07.138Z,76.52
2022-11-17T21:58:03.866Z,76.69
2022-11-17T22:03:01.300Z,77.42
2022-11-17T22:07:58.606Z,77.29
2022-11-17T22:12:56.155Z,78.52
2022-11-17T22:17:53.554Z,77.69
2022-11-17T22:22:53.834Z,76.94
2022-11-17T22:27:50.500Z,77.49
2022-11-17T22:32:47.967Z,77.34
2022-11-17T22:37:45.953Z,77.78
2022-11-17T22:42:42.523Z,77.90
2022-11-17T22:47:41.623Z,77.68
2022-11-17T22:52:38.896Z,77.30
2022-11-17T22:57:35.564Z,77.18
2022-11-17T23:02:32.407Z,77.12
2022-11-17T23:07:33.135Z,76.85
2022-11-17T23:12:30.923Z,76.27
2022-11-17T23:17:27.433Z,77.04
2022-11-17T23:22:24.160Z,77.20
2022-11-17T23:27:21.210Z,76.63
2022-11-17T23:32:18.604Z,75.76
2022-11-17T23:37:15.341Z,76.16
2022-11-17T23:42:13.365Z,75.48
2022-11-17T23:47:10.054Z,74.45
2022-11-17T23:52:10.573Z,75.07
2022-11-17T23:57:07.928Z,75.33
